LESA/SLM METAR and TAF weather

Enter ICAO airport designator
Station Type Date Time Source
LESA METAR 2021/07/27 21:00 UTC NOAA

LESA 272100Z 35005KT CAVOK 19/11 Q1015


Station Type Date Time Source
LESA Decoded METAR 2021/07/27 21:00 UTC NOAA

Salamanca / Matacan, Spain (LESA) 40-57N 005-30W 795M
Jul 27, 2021 - 05:00 PM EDT / 2021.07.27 2100 UTC
Wind: from the N (350 degrees) at 6 MPH (5 KT):0
Visibility: greater than 7 mile(s):0
Temperature: 66 F (19 C)
Dew Point: 51 F (11 C)
Relative Humidity: 59%
Pressure (altimeter): 29.97 in. Hg (1015 hPa)
ob: LESA 272100Z 35005KT CAVOK 19/11 Q1015
cycle: 21

Station Type Date Time Source
LESA TAF 2021/07/27 21:27 UTC NOAA

TAF LESA 272000Z 2721/2821 05006KT CAVOK TX31/2816Z TN10/2805Z

Example: see airport list